Terminal Aerodrome Forecast
Issued by NWS Burlington, VT

Home | Current Version | Previous Version | Text Only | Print | Product List | Glossary On
Versions: 1 2 3 4 5 6 7 8 9 10 11 12 13
409
FTUS41 KBTV 201136
TAFBTV
TAF
KBTV 201136Z 2012/2112 00000KT P6SM SCT005 SCT200
     FM201300 VRB03KT P6SM SCT200
     FM201500 35007KT P6SM SCT150
     FM210600 35004KT 5SM BR SCT200=

USA.gov is the U.S. government's official web portal to all federal, state and local government web resources and services.